Time;durP1;ratioP1;P1;durP2;ratioP2;P2;SDS_P1;SDS_P2;PMS_P1;PMS_P2;Temp;Humidity;BMP_temperature;BMP_pressure;BME280_temperature;BME280_humidity;BME280_pressure;Samples;Min_cycle;Max_cycle;Signal;HPM_P1;HPM_P2
2023/12/27 00:00:49;;;;;;;0.13;0.13;;;0.80;1.00;;;;;;5105137;28;20063;-87
2023/12/27 00:03:15;;;;;;;0.00;0.00;;;0.70;1.00;;;;;;5087387;28;20082;-87
2023/12/27 00:05:40;;;;;;;1.27;0.85;;;0.60;1.00;;;;;;5086989;28;20047;-87
2023/12/27 00:08:06;;;;;;;0.75;0.75;;;0.60;1.00;;;;;;5104863;28;20128;-86
2023/12/27 00:10:32;;;;;;;0.15;0.15;;;0.60;1.00;;;;;;5105780;28;20044;-86
2023/12/27 00:12:57;;;;;;;0.00;0.00;;;0.70;1.00;;;;;;5105408;28;20052;-86
2023/12/27 00:15:23;;;;;;;0.00;0.00;;;0.60;1.00;;;;;;5104892;28;20035;-86
2023/12/27 00:17:48;;;;;;;0.00;0.00;;;0.60;1.00;;;;;;5104918;28;20081;-87
2023/12/27 00:20:14;;;;;;;0.32;0.32;;;0.50;1.00;;;;;;5105286;28;20169;-87
2023/12/27 00:22:40;;;;;;;0.35;0.35;;;0.50;1.00;;;;;;5105016;28;20051;-86
2023/12/27 00:25:06;;;;;;;0.22;0.22;;;0.40;1.00;;;;;;5087541;28;20394;-86
2023/12/27 00:27:32;;;;;;;0.00;0.00;;;0.40;1.00;;;;;;5104990;28;20050;-86
2023/12/27 00:29:57;;;;;;;0.50;0.45;;;-0.20;1.00;;;;;;5105136;28;20058;-86
2023/12/27 00:32:23;;;;;;;0.00;0.00;;;0.40;1.00;;;;;;5105472;28;20043;-86
2023/12/27 00:34:49;;;;;;;0.15;0.15;;;0.30;1.00;;;;;;5105279;28;20058;-86
2023/12/27 00:37:15;;;;;;;0.03;0.03;;;0.30;1.00;;;;;;5105084;28;20493;-86
2023/12/27 00:39:41;;;;;;;0.00;0.00;;;0.20;1.00;;;;;;5087751;28;20059;-86
2023/12/27 00:42:07;;;;;;;3.92;2.13;;;0.20;1.00;;;;;;5104546;28;20055;-85
2023/12/27 00:44:33;;;;;;;0.10;0.10;;;0.10;1.00;;;;;;5105000;28;20432;-86
2023/12/27 00:46:59;;;;;;;0.13;0.13;;;0.10;1.00;;;;;;5104974;28;20049;-86
2023/12/27 00:49:24;;;;;;;0.35;0.30;;;0.00;1.00;;;;;;5086448;28;20047;-86
2023/12/27 00:51:50;;;;;;;0.00;0.00;;;-0.10;1.00;;;;;;5104160;28;20398;-86
2023/12/27 00:54:15;;;;;;;0.55;0.50;;;-0.10;1.00;;;;;;5104834;28;20088;-86
2023/12/27 00:56:41;;;;;;;0.00;0.00;;;-0.20;1.00;;;;;;5104784;28;20047;-87
2023/12/27 00:59:07;;;;;;;0.28;0.28;;;-0.20;99.90;;;;;;5104184;28;20052;-87
2023/12/27 01:01:32;;;;;;;0.00;0.00;;;-0.20;99.90;;;;;;5104532;28;20112;-86
2023/12/27 01:03:58;;;;;;;0.00;0.00;;;-0.20;99.90;;;;;;5104229;28;20497;-87
2023/12/27 01:06:24;;;;;;;0.00;0.00;;;-0.30;99.90;;;;;;5104618;28;20039;-86
2023/12/27 01:08:50;;;;;;;0.00;0.00;;;-0.30;99.90;;;;;;5104716;28;20047;-87
2023/12/27 01:11:15;;;;;;;0.63;0.63;;;-0.30;99.90;;;;;;5104706;28;20043;-87
2023/12/27 01:13:41;;;;;;;0.00;0.00;;;-0.40;99.90;;;;;;5104528;28;20044;-86
2023/12/27 01:16:07;;;;;;;0.00;0.00;;;-0.40;99.90;;;;;;5104129;28;20043;-86
2023/12/27 01:18:33;;;;;;;0.00;0.00;;;-0.50;99.90;;;;;;5085543;28;20115;-86
2023/12/27 01:20:59;;;;;;;0.10;0.10;;;-0.50;99.90;;;;;;5104144;28;20122;-86
2023/12/27 01:23:25;;;;;;;1.45;1.35;;;-0.50;99.90;;;;;;5069212;28;20900;-86
2023/12/27 01:25:50;;;;;;;0.00;0.00;;;-0.50;99.90;;;;;;5104134;28;20108;-86
2023/12/27 01:28:16;;;;;;;0.00;0.00;;;-0.50;99.90;;;;;;5104445;28;20401;-86
2023/12/27 01:30:42;;;;;;;0.20;0.20;;;-0.50;99.90;;;;;;5104607;28;20055;-86
2023/12/27 01:33:07;;;;;;;0.00;0.00;;;-0.60;99.90;;;;;;5085846;28;20071;-86
2023/12/27 01:35:33;;;;;;;0.05;0.05;;;-0.60;99.90;;;;;;5104389;28;20055;-86
2023/12/27 01:37:58;;;;;;;0.00;0.00;;;-0.60;99.90;;;;;;5104595;28;20333;-87
2023/12/27 01:40:24;;;;;;;32.22;1.55;;;-0.60;99.90;;;;;;5104010;28;20130;-86
2023/12/27 01:42:50;;;;;;;0.00;0.00;;;-0.70;99.90;;;;;;5095808;28;20511;-86
2023/12/27 01:45:15;;;;;;;0.10;0.10;;;-0.60;99.90;;;;;;5104494;28;20040;-87
2023/12/27 01:47:42;;;;;;;0.10;0.10;;;-0.60;99.90;;;;;;5105285;28;20051;-87
2023/12/27 01:50:09;;;;;;;0.00;0.00;;;-0.70;99.90;;;;;;5104894;28;20470;-87
2023/12/27 01:52:36;;;;;;;0.00;0.00;;;-0.70;99.90;;;;;;5104950;28;20047;-87
2023/12/27 01:55:02;;;;;;;0.00;0.00;;;-0.70;99.90;;;;;;5104711;28;20512;-87
2023/12/27 01:57:28;;;;;;;0.28;0.28;;;-0.70;99.90;;;;;;5103961;28;20081;-87
2023/12/27 01:59:54;;;;;;;0.00;0.00;;;-0.70;99.90;;;;;;5103993;28;20513;-87
2023/12/27 02:02:22;;;;;;;0.50;0.50;;;-0.80;99.90;;;;;;5104559;28;20075;-87
2023/12/27 02:04:48;;;;;;;0.00;0.00;;;-0.80;99.90;;;;;;5105642;28;20475;-87
2023/12/27 02:07:14;;;;;;;0.70;0.70;;;-0.90;99.90;;;;;;5086709;28;20123;-87
2023/12/27 02:09:40;;;;;;;0.10;0.10;;;-0.80;99.90;;;;;;5106977;28;20070;-87
2023/12/27 02:12:06;;;;;;;0.00;0.00;;;-0.80;99.90;;;;;;5109696;28;20047;-87
2023/12/27 02:14:32;;;;;;;0.07;0.07;;;-0.80;99.90;;;;;;5109078;28;20059;-87
2023/12/27 02:16:59;;;;;;;0.30;0.30;;;-0.80;99.90;;;;;;5109267;28;20054;-87
2023/12/27 02:19:27;;;;;;;0.10;0.10;;;-0.80;99.90;;;;;;5110000;28;20043;-87
2023/12/27 02:21:53;;;;;;;0.10;0.10;;;-0.80;99.90;;;;;;5108789;28;20058;-87
2023/12/27 02:24:21;;;;;;;0.05;0.05;;;-0.90;99.90;;;;;;5106923;28;20048;-87
2023/12/27 02:26:46;;;;;;;0.10;0.10;;;-0.90;99.90;;;;;;5106474;28;20090;-87
2023/12/27 02:29:12;;;;;;;0.05;0.05;;;-0.90;99.90;;;;;;5106052;28;20477;-87
2023/12/27 02:31:37;;;;;;;0.00;0.00;;;-0.90;99.90;;;;;;5104784;28;20502;-87
2023/12/27 02:34:03;;;;;;;0.35;0.35;;;-0.90;99.90;;;;;;5104910;28;20079;-87
2023/12/27 02:36:29;;;;;;;0.00;0.00;;;-0.90;99.90;;;;;;5086241;28;20035;-87
2023/12/27 02:38:54;;;;;;;0.00;0.00;;;-0.90;99.90;;;;;;5105313;28;20079;-87
2023/12/27 02:41:20;;;;;;;0.00;0.00;;;-0.90;99.90;;;;;;5105160;28;20035;-87
2023/12/27 02:43:45;;;;;;;0.00;0.00;;;-0.90;99.90;;;;;;5104719;28;20042;-87
2023/12/27 02:46:11;;;;;;;0.00;0.00;;;-1.00;99.90;;;;;;5086099;28;20499;-88
2023/12/27 02:48:36;;;;;;;0.30;0.30;;;-1.00;99.90;;;;;;5087036;28;20131;-87
2023/12/27 02:51:02;;;;;;;0.00;0.00;;;-1.00;99.90;;;;;;5104716;28;20050;-87
2023/12/27 02:53:28;;;;;;;0.22;0.22;;;-0.90;99.90;;;;;;5104546;28;20040;-87
2023/12/27 02:55:53;;;;;;;0.00;0.00;;;-0.90;99.90;;;;;;5086529;28;20466;-87
2023/12/27 02:58:19;;;;;;;0.00;0.00;;;-0.90;99.90;;;;;;5086166;28;20062;-87
2023/12/27 03:00:47;;;;;;;0.00;0.00;;;-0.90;99.90;;;;;;5090632;28;20050;-85
2023/12/27 03:03:12;;;;;;;0.00;0.00;;;-0.80;99.90;;;;;;5105121;28;20083;-86
2023/12/27 03:05:38;;;;;;;0.03;0.03;;;-0.80;99.90;;;;;;5105025;28;20082;-86
2023/12/27 03:08:04;;;;;;;0.00;0.00;;;-0.80;99.90;;;;;;5086168;28;20059;-86
2023/12/27 03:10:30;;;;;;;0.00;0.00;;;-0.70;99.90;;;;;;5084890;28;20078;-86
2023/12/27 03:12:55;;;;;;;0.00;0.00;;;-0.70;99.90;;;;;;5103906;28;20046;-86
2023/12/27 03:15:21;;;;;;;0.00;0.00;;;-0.60;99.90;;;;;;5105959;28;20562;-86
2023/12/27 03:17:47;;;;;;;0.10;0.10;;;-0.50;99.90;;;;;;5106196;28;20040;-86
2023/12/27 03:20:13;;;;;;;0.10;0.10;;;-0.40;99.90;;;;;;5107172;28;20046;-86
2023/12/27 03:22:38;;;;;;;0.10;0.10;;;-0.30;99.90;;;;;;5107138;28;20043;-86
2023/12/27 03:25:04;;;;;;;0.43;0.38;;;-0.30;99.90;;;;;;5107145;28;20150;-86
2023/12/27 03:27:30;;;;;;;0.00;0.00;;;-0.30;99.90;;;;;;5107122;28;20147;-86
2023/12/27 03:29:56;;;;;;;0.00;0.00;;;-0.30;99.90;;;;;;5107322;28;20130;-87
2023/12/27 03:32:23;;;;;;;0.03;0.03;;;-0.40;99.90;;;;;;5106382;28;20055;-87
2023/12/27 03:34:49;;;;;;;1.40;1.30;;;-0.40;99.90;;;;;;5105912;28;20268;-86
2023/12/27 03:37:15;;;;;;;0.00;0.00;;;-0.40;99.90;;;;;;5106202;28;20100;-87
2023/12/27 03:39:43;;;;;;;0.00;0.00;;;-0.40;99.90;;;;;;5106644;28;20047;-87
2023/12/27 03:42:12;;;;;;;0.00;0.00;;;-0.40;99.90;;;;;;5107529;28;20879;-87
2023/12/27 03:44:38;;;;;;;0.40;0.40;;;-0.40;99.90;;;;;;5106337;28;20040;-87
2023/12/27 03:47:04;;;;;;;0.00;0.00;;;-0.40;99.90;;;;;;5106461;28;20047;-87
2023/12/27 03:49:30;;;;;;;0.20;0.20;;;-0.50;99.90;;;;;;5106611;28;20099;-87
2023/12/27 03:51:55;;;;;;;0.00;0.00;;;-0.50;99.90;;;;;;5106628;28;20698;-87
2023/12/27 03:54:21;;;;;;;0.47;0.47;;;-0.50;99.90;;;;;;5106567;28;20082;-87
2023/12/27 03:56:47;;;;;;;0.10;0.10;;;-0.60;99.90;;;;;;5106452;28;20035;-87
2023/12/27 03:59:12;;;;;;;0.00;0.00;;;-0.60;99.90;;;;;;5106831;28;20062;-87
2023/12/27 04:01:38;;;;;;;0.10;0.10;;;-0.70;99.90;;;;;;5106551;28;20063;-87
2023/12/27 04:04:04;;;;;;;0.00;0.00;;;-0.70;99.90;;;;;;5106368;28;20130;-87
2023/12/27 04:06:29;;;;;;;1.00;0.52;;;-0.70;99.90;;;;;;5106739;28;20072;-87
2023/12/27 04:08:55;;;;;;;0.10;0.10;;;-0.70;99.90;;;;;;5107059;28;20082;-87
2023/12/27 04:11:21;;;;;;;0.05;0.05;;;-0.60;99.90;;;;;;5106669;28;20095;-87
2023/12/27 04:13:46;;;;;;;0.00;0.00;;;-0.60;99.90;;;;;;5097209;28;20481;-87
2023/12/27 04:16:12;;;;;;;0.00;0.00;;;-0.60;99.90;;;;;;5107095;28;20532;-86
2023/12/27 04:18:38;;;;;;;4.50;1.25;;;-0.50;99.90;;;;;;5090463;28;20465;-87
2023/12/27 04:21:04;;;;;;;0.08;0.08;;;-0.50;99.90;;;;;;5106773;28;20052;-87
2023/12/27 04:23:29;;;;;;;0.30;0.30;;;-0.40;99.90;;;;;;5106741;28;20044;-86
2023/12/27 04:25:56;;;;;;;1.67;1.30;;;-0.40;99.90;;;;;;5106524;28;20131;-87
2023/12/27 04:28:22;;;;;;;0.10;0.10;;;-0.30;99.90;;;;;;5089276;28;20048;-87
2023/12/27 04:30:47;;;;;;;0.90;0.80;;;-0.20;99.90;;;;;;5088858;28;20134;-87
2023/12/27 04:33:13;;;;;;;0.00;0.00;;;-0.20;99.90;;;;;;5106962;28;20170;-86
2023/12/27 04:35:39;;;;;;;0.00;0.00;;;-0.10;28.80;;;;;;5094563;28;20039;-87
2023/12/27 04:38:05;;;;;;;0.10;0.10;;;-0.10;26.20;;;;;;5106729;28;20043;-87
2023/12/27 04:40:30;;;;;;;0.03;0.03;;;-0.10;25.20;;;;;;5106527;28;20049;-87
2023/12/27 04:42:57;;;;;;;0.10;0.10;;;-0.10;33.40;;;;;;5106442;28;20050;-88
2023/12/27 04:45:22;;;;;;;0.00;0.00;;;-0.10;19.30;;;;;;5100154;28;20132;-87
2023/12/27 04:47:48;;;;;;;0.00;0.00;;;-0.10;1.00;;;;;;5107201;28;20079;-87
2023/12/27 04:50:14;;;;;;;0.10;0.10;;;-0.10;1.00;;;;;;5099547;28;20493;-87
2023/12/27 04:52:39;;;;;;;0.35;0.35;;;-0.10;1.00;;;;;;5087018;28;20052;-88
2023/12/27 04:55:05;;;;;;;0.00;0.00;;;-0.20;1.00;;;;;;5087700;28;20055;-87
2023/12/27 04:57:31;;;;;;;0.73;0.52;;;-0.20;1.00;;;;;;5086359;28;20071;-86
2023/12/27 04:59:56;;;;;;;2.10;0.95;;;-0.20;1.00;;;;;;5069839;28;20100;-87
2023/12/27 05:02:22;;;;;;;0.00;0.00;;;-0.20;1.00;;;;;;5104957;28;20100;-87
2023/12/27 05:04:47;;;;;;;0.00;0.00;;;-0.20;1.00;;;;;;5105101;28;20352;-87
2023/12/27 05:07:14;;;;;;;0.10;0.10;;;-0.20;1.00;;;;;;5105022;28;20126;-87
2023/12/27 05:09:40;;;;;;;0.00;0.00;;;0.20;1.00;;;;;;5105175;28;20069;-87
2023/12/27 05:12:06;;;;;;;0.00;0.00;;;-0.20;1.00;;;;;;5105173;28;20051;-87
2023/12/27 05:14:31;;;;;;;0.00;0.00;;;-0.20;1.00;;;;;;5104660;28;20036;-87
2023/12/27 05:16:57;;;;;;;0.10;0.10;;;-0.20;1.00;;;;;;5104617;28;20044;-87
2023/12/27 05:19:22;;;;;;;0.00;0.00;;;-0.20;1.00;;;;;;5086741;28;20055;-87
2023/12/27 05:21:48;;;;;;;0.00;0.00;;;-0.20;1.00;;;;;;5104363;28;20446;-87
2023/12/27 05:24:14;;;;;;;0.10;0.10;;;-0.10;1.00;;;;;;5104929;28;20093;-87
2023/12/27 05:26:39;;;;;;;0.10;0.10;;;0.00;1.00;;;;;;5104530;28;20051;-87
2023/12/27 05:29:05;;;;;;;0.00;0.00;;;0.00;1.00;;;;;;5104765;28;20543;-87
2023/12/27 05:31:30;;;;;;;0.00;0.00;;;0.10;9.90;;;;;;5104786;28;20047;-87
2023/12/27 05:33:57;;;;;;;0.00;0.00;;;0.10;8.70;;;;;;5104332;28;20047;-87
2023/12/27 05:36:22;;;;;;;0.00;0.00;;;0.20;4.30;;;;;;5104165;28;20485;-87
2023/12/27 05:38:48;;;;;;;0.10;0.10;;;0.20;12.30;;;;;;5103301;28;20042;-87
2023/12/27 05:41:14;;;;;;;0.00;0.00;;;0.30;55.10;;;;;;5104061;28;20109;-87
2023/12/27 05:43:39;;;;;;;0.10;0.10;;;0.50;99.90;;;;;;5103877;28;20443;-87
2023/12/27 05:46:05;;;;;;;0.00;0.00;;;0.60;99.90;;;;;;5104124;28;20050;-87
2023/12/27 05:48:31;;;;;;;0.00;0.00;;;0.60;99.90;;;;;;5103803;28;20051;-87
2023/12/27 05:50:56;;;;;;;0.00;0.00;;;0.70;99.90;;;;;;5085465;28;20417;-87
2023/12/27 05:53:22;;;;;;;0.10;0.10;;;0.60;99.90;;;;;;5104189;28;20075;-87
2023/12/27 05:55:48;;;;;;;0.50;0.50;;;0.60;99.90;;;;;;5104173;28;20058;-87
2023/12/27 05:58:14;;;;;;;0.05;0.05;;;0.60;99.90;;;;;;5085598;28;20051;-87
2023/12/27 06:00:40;;;;;;;0.10;0.10;;;0.60;99.90;;;;;;5085611;28;20060;-87
2023/12/27 06:03:05;;;;;;;0.00;0.00;;;0.60;99.90;;;;;;5104060;28;20049;-87
2023/12/27 06:05:32;;;;;;;0.00;0.00;;;0.80;99.90;;;;;;5086205;28;20055;-87
2023/12/27 06:07:57;;;;;;;0.10;0.10;;;0.50;99.90;;;;;;5085434;28;20075;-87
2023/12/27 06:10:26;;;;;;;0.15;0.15;;;0.50;99.90;;;;;;5085614;28;20493;-87
2023/12/27 06:12:51;;;;;;;9.65;2.17;;;0.60;1.00;;;;;;5085443;28;20055;-87
2023/12/27 06:15:17;;;;;;;0.73;0.73;;;0.60;1.00;;;;;;5103804;28;20059;-87
2023/12/27 06:17:43;;;;;;;0.00;0.00;;;0.60;8.50;;;;;;5085374;28;20593;-87
2023/12/27 06:20:09;;;;;;;2.85;2.42;;;0.60;16.30;;;;;;5103453;28;20055;-88
2023/12/27 06:22:34;;;;;;;0.00;0.00;;;0.60;28.20;;;;;;5091069;28;20390;-87
2023/12/27 06:25:00;;;;;;;0.00;0.00;;;0.60;22.30;;;;;;5085565;28;20109;-87
2023/12/27 06:27:26;;;;;;;0.22;0.22;;;0.60;27.10;;;;;;5103368;28;20043;-87
2023/12/27 06:29:51;;;;;;;0.93;0.90;;;0.60;65.60;;;;;;5084332;28;20409;-87
2023/12/27 06:32:17;;;;;;;0.00;0.00;;;0.60;87.60;;;;;;5102849;28;20075;-87
2023/12/27 06:34:43;;;;;;;0.00;0.00;;;0.60;99.90;;;;;;5093865;28;20058;-87
2023/12/27 06:37:09;;;;;;;0.52;0.52;;;0.70;99.90;;;;;;5084895;28;20065;-87
2023/12/27 06:39:34;;;;;;;0.00;0.00;;;0.70;99.90;;;;;;5084660;28;20106;-87
2023/12/27 06:42:00;;;;;;;0.30;0.30;;;0.70;99.90;;;;;;5103289;28;20127;-87
2023/12/27 06:44:26;;;;;;;0.00;0.00;;;0.80;99.90;;;;;;5104184;28;20043;-87
2023/12/27 06:46:52;;;;;;;0.00;0.00;;;0.80;99.90;;;;;;5102920;28;20055;-87
2023/12/27 06:49:18;;;;;;;0.00;0.00;;;0.90;99.90;;;;;;5102506;28;20043;-87
2023/12/27 06:51:44;;;;;;;0.43;0.43;;;1.00;1.00;;;;;;5102569;28;20074;-87
2023/12/27 06:54:09;;;;;;;0.00;0.00;;;1.20;1.00;;;;;;5103389;28;20086;-87
2023/12/27 06:56:38;;;;;;;0.10;0.10;;;1.30;11.30;;;;;;5103144;28;20096;-87
2023/12/27 06:59:05;;;;;;;0.10;0.10;;;1.40;93.70;;;;;;5084489;28;20062;-87
2023/12/27 07:01:30;;;;;;;0.10;0.10;;;1.50;99.90;;;;;;5102767;28;20475;-87
2023/12/27 07:03:56;;;;;;;0.15;0.13;;;1.70;87.80;;;;;;5102829;28;20035;-87
2023/12/27 07:06:22;;;;;;;0.00;0.00;;;1.90;99.90;;;;;;5102360;28;20057;-87
2023/12/27 07:08:47;;;;;;;0.00;0.00;;;2.00;99.90;;;;;;5067693;28;20052;-87
2023/12/27 07:11:20;;;;;;;0.00;0.00;;;2.10;99.90;;;;;;5102539;28;20396;-87
2023/12/27 07:13:46;;;;;;;0.30;0.30;;;2.10;99.90;;;;;;5102862;28;20047;-87
2023/12/27 07:16:15;;;;;;;0.00;0.00;;;2.20;99.90;;;;;;5090499;28;20048;-87
2023/12/27 07:18:41;;;;;;;0.85;0.60;;;2.20;99.90;;;;;;5102275;28;20048;-87
2023/12/27 07:21:07;;;;;;;0.10;0.10;;;2.30;99.90;;;;;;5101873;28;20156;-87
2023/12/27 07:23:32;;;;;;;0.00;0.00;;;2.30;99.90;;;;;;5083577;28;20078;-87
2023/12/27 07:26:03;;;;;;;0.30;0.22;;;2.30;99.90;;;;;;5084551;28;20048;-87
2023/12/27 07:28:29;;;;;;;0.00;0.00;;;2.40;99.90;;;;;;5083713;28;20070;-87
2023/12/27 07:30:55;;;;;;;0.55;0.55;;;2.40;99.90;;;;;;5101855;28;20119;-88
2023/12/27 07:33:20;;;;;;;0.20;0.20;;;2.40;99.90;;;;;;5102246;28;20043;-88
2023/12/27 07:35:47;;;;;;;0.17;0.17;;;2.40;99.90;;;;;;5102214;28;20054;-87
2023/12/27 07:38:13;;;;;;;0.47;0.47;;;2.50;99.90;;;;;;5100858;28;20097;-88
2023/12/27 07:40:40;;;;;;;0.35;0.35;;;2.50;99.90;;;;;;5084324;28;20054;-88
2023/12/27 07:43:08;;;;;;;0.63;0.63;;;2.50;99.90;;;;;;5086338;28;20127;-88
2023/12/27 07:45:34;;;;;;;1.23;0.60;;;2.50;99.90;;;;;;5101123;28;20066;-87
2023/12/27 07:47:59;;;;;;;0.88;0.88;;;2.50;99.90;;;;;;5101256;28;20593;-88
2023/12/27 07:50:25;;;;;;;1.27;0.63;;;2.50;99.90;;;;;;5100649;28;20044;-88
2023/12/27 07:52:52;;;;;;;0.10;0.10;;;2.60;99.90;;;;;;5100585;28;21029;-87
2023/12/27 07:55:18;;;;;;;1.55;0.95;;;2.60;99.90;;;;;;5100957;28;20091;-87
2023/12/27 07:57:45;;;;;;;0.50;0.50;;;2.60;99.90;;;;;;5082808;28;20102;-87
2023/12/27 08:00:14;;;;;;;2.45;1.25;;;2.60;99.90;;;;;;5081983;28;20078;-88
2023/12/27 08:02:43;;;;;;;0.13;0.13;;;2.60;99.90;;;;;;5085229;28;20623;-87
2023/12/27 08:05:08;;;;;;;0.38;0.38;;;2.60;99.90;;;;;;5103621;28;20043;-88
2023/12/27 08:07:34;;;;;;;0.00;0.00;;;2.70;99.90;;;;;;5104148;28;20050;-87
2023/12/27 08:10:00;;;;;;;0.98;0.93;;;2.70;99.90;;;;;;5103860;28;20082;-87
2023/12/27 08:12:25;;;;;;;0.20;0.20;;;2.70;99.90;;;;;;5103204;28;20104;-88
2023/12/27 08:14:51;;;;;;;0.00;0.00;;;2.70;99.90;;;;;;5104136;28;20050;-88
2023/12/27 08:17:16;;;;;;;0.20;0.20;;;2.90;99.90;;;;;;5104000;28;20442;-88
2023/12/27 08:19:42;;;;;;;1.90;0.82;;;2.80;99.90;;;;;;5103640;28;20051;-87
2023/12/27 08:22:08;;;;;;;0.17;0.17;;;2.80;99.90;;;;;;5104482;28;20607;-87
2023/12/27 08:24:33;;;;;;;1.02;1.00;;;2.90;99.90;;;;;;5104373;28;20126;-87
2023/12/27 08:26:59;;;;;;;0.10;0.10;;;2.90;99.90;;;;;;5103949;28;20044;-87
2023/12/27 08:29:25;;;;;;;0.55;0.55;;;2.90;99.90;;;;;;5103573;28;20110;-88
2023/12/27 08:31:50;;;;;;;0.45;0.45;;;3.00;99.90;;;;;;5103803;28;20587;-88
2023/12/27 08:34:16;;;;;;;0.10;0.10;;;3.00;99.90;;;;;;5103825;28;20051;-87
2023/12/27 08:36:45;;;;;;;1.98;1.55;;;3.00;99.90;;;;;;5104452;28;20061;-88
2023/12/27 08:39:11;;;;;;;0.00;0.00;;;3.00;99.90;;;;;;5092905;28;20050;-88
2023/12/27 08:41:36;;;;;;;2.08;0.80;;;3.10;99.90;;;;;;5103535;28;20047;-88
2023/12/27 08:44:02;;;;;;;0.32;0.32;;;3.10;99.90;;;;;;5104112;28;20054;-87
2023/12/27 08:46:28;;;;;;;0.30;0.30;;;3.10;78.90;;;;;;5103679;28;20485;-87
2023/12/27 08:48:57;;;;;;;0.00;0.00;;;3.10;1.00;;;;;;5102777;28;20059;-87
2023/12/27 08:51:22;;;;;;;0.00;0.00;;;3.10;1.00;;;;;;5084976;28;20076;-87
2023/12/27 08:53:48;;;;;;;0.50;0.50;;;3.20;99.90;;;;;;5103275;28;20544;-87
2023/12/27 08:56:14;;;;;;;0.00;0.00;;;3.20;99.90;;;;;;5103775;28;20381;-87
2023/12/27 08:58:40;;;;;;;0.08;0.08;;;3.20;99.90;;;;;;5103367;28;20563;-88
2023/12/27 09:01:05;;;;;;;0.10;0.10;;;3.20;99.90;;;;;;5103003;28;20051;-88
2023/12/27 09:03:31;;;;;;;0.10;0.10;;;3.30;99.90;;;;;;5103105;28;20404;-88
2023/12/27 09:05:57;;;;;;;1.35;1.25;;;3.30;64.00;;;;;;5103581;28;20046;-88
2023/12/27 09:08:22;;;;;;;0.38;0.28;;;3.30;1.00;;;;;;5086338;28;20127;-88
2023/12/27 09:10:48;;;;;;;0.20;0.20;;;3.30;1.00;;;;;;5104364;28;20450;-89
2023/12/27 09:13:14;;;;;;;1.42;0.90;;;3.30;1.00;;;;;;5103847;28;20452;-87
2023/12/27 09:15:40;;;;;;;0.05;0.05;;;3.30;1.00;;;;;;5085056;28;20067;-87
2023/12/27 09:18:07;;;;;;;14.05;1.55;;;3.40;99.90;;;;;;5085091;28;20047;-87
2023/12/27 09:20:34;;;;;;;0.25;0.25;;;3.40;58.10;;;;;;5103445;28;20070;-88
2023/12/27 09:23:00;;;;;;;0.00;0.00;;;3.40;1.00;;;;;;5103010;28;20460;-87
2023/12/27 09:25:25;;;;;;;0.30;0.30;;;3.50;1.00;;;;;;5097458;28;20078;-88
2023/12/27 09:27:51;;;;;;;0.40;0.40;;;3.50;99.90;;;;;;5067700;28;20058;-87
2023/12/27 09:30:17;;;;;;;0.15;0.15;;;3.50;99.90;;;;;;5103140;28;20092;-87
2023/12/27 09:32:45;;;;;;;0.30;0.30;;;3.50;99.90;;;;;;5086177;28;20051;-86
2023/12/27 09:35:11;;;;;;;0.00;0.00;;;3.60;99.90;;;;;;5103284;28;20401;-84
2023/12/27 09:37:37;;;;;;;0.60;0.60;;;3.60;99.90;;;;;;5104057;28;20054;-88
2023/12/27 09:40:03;;;;;;;0.10;0.10;;;3.80;99.90;;;;;;5104766;28;20123;-87
2023/12/27 09:42:32;;;;;;;1.60;1.50;;;3.70;99.90;;;;;;5103668;28;20504;-88
2023/12/27 09:45:00;;;;;;;0.20;0.20;;;3.70;99.90;;;;;;5065074;28;20056;-88
2023/12/27 09:47:28;;;;;;;0.85;0.82;;;3.70;99.90;;;;;;5092153;28;20051;-88
2023/12/27 09:49:56;;;;;;;0.00;0.00;;;3.80;99.90;;;;;;5102471;28;20055;-88
2023/12/27 09:52:23;;;;;;;0.38;0.38;;;3.80;99.90;;;;;;5101639;28;20051;-88
2023/12/27 09:54:49;;;;;;;0.70;0.70;;;3.80;99.90;;;;;;5102094;28;20051;-88
2023/12/27 09:57:15;;;;;;;0.00;0.00;;;5.00;99.90;;;;;;5083932;28;20035;-88
2023/12/27 09:59:45;;;;;;;1.08;0.98;;;3.90;99.90;;;;;;5102230;28;20389;-88
2023/12/27 10:02:17;;;;;;;0.30;0.30;;;3.90;99.90;;;;;;5102356;28;20124;-88
2023/12/27 10:05:16;;;;;;;0.38;0.38;;;4.00;99.90;;;;;;5102841;28;20043;-87
2023/12/27 10:07:42;;;;;;;1.92;1.75;;;4.00;99.90;;;;;;5102513;28;20055;-88
2023/12/27 10:10:09;;;;;;;1.38;0.82;;;4.10;99.90;;;;;;5084411;28;20044;-87
2023/12/27 10:12:40;;;;;;;0.30;0.30;;;4.20;99.90;;;;;;5102259;28;20048;-88
2023/12/27 10:15:07;;;;;;;0.40;0.40;;;4.10;93.10;;;;;;5101996;28;20044;-87
2023/12/27 10:17:33;;;;;;;2.83;1.35;;;4.20;1.00;;;;;;5084308;28;20036;-88
2023/12/27 10:19:59;;;;;;;0.00;0.00;;;4.20;1.00;;;;;;5103051;28;20032;-88
2023/12/27 10:22:25;;;;;;;0.00;0.00;;;4.20;1.00;;;;;;5103113;28;20130;-87
2023/12/27 10:24:51;;;;;;;1.20;0.95;;;4.30;1.00;;;;;;5084168;28;20058;-88
2023/12/27 10:27:17;;;;;;;0.57;0.57;;;4.30;99.90;;;;;;5102609;28;20039;-87
2023/12/27 10:29:47;;;;;;;0.10;0.10;;;4.40;99.90;;;;;;5102247;28;20054;-87
2023/12/27 10:32:16;;;;;;;0.32;0.32;;;4.40;99.90;;;;;;5101987;28;20528;-87
2023/12/27 10:34:42;;;;;;;0.10;0.10;;;4.50;96.80;;;;;;5102699;28;20400;-88
2023/12/27 10:37:11;;;;;;;0.22;0.17;;;4.50;40.00;;;;;;5102448;28;20492;-87
2023/12/27 10:39:46;;;;;;;3.40;0.65;;;4.60;1.00;;;;;;5104025;28;20035;-87
2023/12/27 10:42:18;;;;;;;0.30;0.30;;;4.60;99.90;;;;;;5100628;28;20493;-88
2023/12/27 10:44:46;;;;;;;1.20;0.57;;;4.70;99.90;;;;;;5084237;28;20044;-87
2023/12/27 10:47:18;;;;;;;0.73;0.73;;;4.70;99.90;;;;;;5099054;28;20290;-89
2023/12/27 10:49:48;;;;;;;0.00;0.00;;;4.80;99.90;;;;;;5083803;28;20043;-88
2023/12/27 10:52:16;;;;;;;0.00;0.00;;;5.60;99.90;;;;;;5100671;28;20051;-88
2023/12/27 10:54:47;;;;;;;0.77;0.77;;;4.90;81.60;;;;;;5100482;28;20401;-87
2023/12/27 10:57:21;;;;;;;1.88;1.33;;;4.90;1.00;;;;;;5100850;28;20707;-88
2023/12/27 10:59:47;;;;;;;0.13;0.13;;;5.00;1.00;;;;;;5101047;28;20051;-87
2023/12/27 11:02:13;;;;;;;1.35;0.65;;;5.00;99.90;;;;;;5083511;28;20069;-87
2023/12/27 11:04:42;;;;;;;0.98;0.65;;;5.00;99.90;;;;;;5100956;28;20040;-87
2023/12/27 11:07:09;;;;;;;1.30;1.20;;;5.00;99.90;;;;;;5083174;28;20063;-86
2023/12/27 11:09:36;;;;;;;0.10;0.10;;;5.00;1.00;;;;;;5101083;28;20225;-86
2023/12/27 11:12:06;;;;;;;1.15;1.10;;;5.00;94.00;;;;;;5081690;28;20051;-88
2023/12/27 11:14:35;;;;;;;1.08;0.90;;;5.00;99.90;;;;;;5082404;28;20366;-86
2023/12/27 11:17:05;;;;;;;0.80;0.80;;;5.00;99.90;;;;;;5101027;28;20051;-87
2023/12/27 11:19:33;;;;;;;0.10;0.10;;;5.10;99.90;;;;;;5101619;28;20050;-87
2023/12/27 11:21:58;;;;;;;1.60;1.30;;;5.00;1.00;;;;;;5102301;28;20055;-88
2023/12/27 11:24:24;;;;;;;0.17;0.17;;;5.00;1.00;;;;;;5102601;28;20374;-87
2023/12/27 11:27:01;;;;;;;0.38;0.38;;;5.00;1.00;;;;;;5101516;28;20053;-87
2023/12/27 11:29:29;;;;;;;1.48;1.30;;;5.00;69.90;;;;;;5101170;28;20473;-87
2023/12/27 11:31:57;;;;;;;0.30;0.30;;;5.00;1.00;;;;;;5082871;28;20100;-87
2023/12/27 11:34:23;;;;;;;3.30;3.00;;;5.10;1.00;;;;;;5082969;28;20130;-88
2023/12/27 11:36:50;;;;;;;5.03;1.35;;;5.10;1.00;;;;;;5105556;28;20142;-88
2023/12/27 11:39:19;;;;;;;1.08;1.00;;;6.00;1.00;;;;;;5105969;28;20044;-88
2023/12/27 11:41:47;;;;;;;1.85;0.88;;;6.20;77.00;;;;;;5106514;28;20092;-88
2023/12/27 11:44:17;;;;;;;1.27;0.57;;;5.10;99.90;;;;;;5108296;28;20048;-88
2023/12/27 11:46:43;;;;;;;0.10;0.10;;;5.10;99.90;;;;;;5107548;28;20055;-88
2023/12/27 11:49:18;;;;;;;0.00;0.00;;;5.30;99.90;;;;;;5107194;28;20481;-89
2023/12/27 11:51:44;;;;;;;0.08;0.08;;;5.10;1.00;;;;;;5089246;28;20370;-89
2023/12/27 11:54:23;;;;;;;1.45;0.75;;;5.10;99.90;;;;;;5089900;28;20568;-89
2023/12/27 11:56:50;;;;;;;1.35;1.25;;;5.10;99.90;;;;;;5107995;28;20086;-90
2023/12/27 11:59:18;;;;;;;0.43;0.43;;;5.10;99.90;;;;;;5071576;28;20147;-89
2023/12/27 12:01:44;;;;;;;1.83;1.73;;;5.10;1.00;;;;;;5070976;28;20058;-90
2023/12/27 12:04:25;;;;;;;1.45;0.85;;;5.10;1.00;;;;;;5087529;28;20079;-89
2023/12/27 12:06:54;;;;;;;2.00;1.17;;;5.10;1.00;;;;;;5104862;28;20127;-88
2023/12/27 12:09:36;;;;;;;0.47;0.47;;;5.30;69.20;;;;;;5069363;28;21003;-88
2023/12/27 12:12:19;;;;;;;1.25;1.13;;;5.00;99.90;;;;;;5077781;28;20096;-87
2023/12/27 12:14:45;;;;;;;0.22;0.22;;;5.00;79.60;;;;;;5105565;28;20121;-86
2023/12/27 12:17:13;;;;;;;0.10;0.10;;;5.00;79.00;;;;;;5070000;28;20047;-86
2023/12/27 12:19:38;;;;;;;0.25;0.22;;;5.00;96.60;;;;;;5106094;28;20044;-88
2023/12/27 12:22:05;;;;;;;0.32;0.32;;;5.10;99.90;;;;;;5087300;28;20054;-88
2023/12/27 12:24:32;;;;;;;0.45;0.45;;;5.00;1.00;;;;;;5087111;28;20040;-87
2023/12/27 12:26:59;;;;;;;0.85;0.68;;;5.10;1.00;;;;;;5068626;28;20078;-88
2023/12/27 12:29:25;;;;;;;0.73;0.63;;;5.10;39.60;;;;;;5068191;28;20179;-88
2023/12/27 12:31:54;;;;;;;2.67;1.15;;;5.10;99.90;;;;;;5068250;28;20044;-88
2023/12/27 12:34:23;;;;;;;0.30;0.30;;;5.10;99.90;;;;;;5103383;28;20112;-87
2023/12/27 12:36:50;;;;;;;1.40;1.30;;;5.10;99.90;;;;;;5084820;28;20106;-87
2023/12/27 12:39:16;;;;;;;0.52;0.47;;;5.10;99.90;;;;;;5085654;28;20226;-88
2023/12/27 12:41:45;;;;;;;5.22;1.50;;;5.20;1.00;;;;;;5068233;28;20131;-88
2023/12/27 12:44:11;;;;;;;0.57;0.57;;;5.20;1.00;;;;;;5085805;28;20123;-88
2023/12/27 12:46:38;;;;;;;0.35;0.35;;;5.20;1.00;;;;;;5068593;28;20083;-88
2023/12/27 12:49:05;;;;;;;0.20;0.20;;;5.20;99.90;;;;;;5068280;28;20391;-88
2023/12/27 12:51:31;;;;;;;12.57;2.35;;;5.30;99.90;;;;;;5103773;28;20040;-88